createdAt,value
2019-04-29T00:00:01.119Z,10.28
2019-04-29T00:05:09.211Z,10.31
2019-04-29T00:07:36.280Z,10.32
2019-04-29T00:10:44.413Z,10.34
2019-04-29T00:13:52.758Z,10.27
2019-04-29T00:16:39.402Z,10.33
2019-04-29T00:19:26.066Z,10.30
2019-04-29T00:21:53.577Z,10.30
2019-04-29T00:24:20.729Z,10.36
2019-04-29T00:26:47.897Z,10.36
2019-04-29T00:29:15.064Z,10.31
2019-04-29T00:31:42.235Z,10.25
2019-04-29T00:34:09.718Z,10.29
2019-04-29T00:36:57.029Z,10.23
2019-04-29T00:39:43.776Z,10.27
2019-04-29T00:42:30.083Z,10.12
2019-04-29T00:44:56.824Z,10.16
2019-04-29T00:47:23.826Z,10.15
2019-04-29T00:49:50.612Z,10.07
2019-04-29T00:52:17.324Z,10.03
2019-04-29T00:55:03.844Z,10.09
2019-04-29T00:57:31.003Z,10.04
2019-04-29T00:59:58.148Z,10.09
2019-04-29T01:02:37.433Z,10.08
2019-04-29T01:05:04.320Z,10.20
2019-04-29T01:07:31.372Z,10.19
2019-04-29T01:09:58.099Z,10.17
2019-04-29T01:12:24.889Z,10.11
2019-04-29T01:14:51.607Z,10.16
2019-04-29T01:20:47.770Z,10.07
2019-04-29T01:23:14.482Z,10.05
2019-04-29T01:31:36.110Z,9.96
2019-04-29T01:36:58.084Z,9.84
2019-04-29T01:40:05.868Z,9.83
2019-04-29T01:45:14.860Z,9.79
2019-04-29T01:47:42.438Z,9.73
2019-04-29T01:50:09.988Z,9.72
2019-04-29T01:52:37.243Z,9.68
2019-04-29T01:55:04.908Z,9.59
2019-04-29T01:57:32.160Z,9.61
2019-04-29T01:59:59.514Z,9.56
2019-04-29T02:02:26.866Z,9.58
2019-04-29T02:04:54.191Z,9.56
2019-04-29T02:07:21.350Z,9.53
2019-04-29T02:13:04.360Z,9.52
2019-04-29T02:15:31.194Z,9.47
2019-04-29T02:17:57.926Z,9.40
2019-04-29T02:20:24.705Z,9.40
2019-04-29T02:25:59.276Z,9.45
2019-04-29T02:28:26.010Z,9.41
2019-04-29T02:33:46.745Z,9.40
2019-04-29T02:36:13.603Z,9.34
2019-04-29T02:41:38.307Z,9.38
2019-04-29T02:46:53.335Z,9.32
2019-04-29T02:49:20.436Z,9.27
2019-04-29T02:54:30.219Z,9.43
2019-04-29T03:05:15.581Z,9.32
2019-04-29T03:07:42.411Z,9.40
2019-04-29T03:10:09.439Z,9.31
2019-04-29T03:12:36.337Z,9.31
2019-04-29T03:15:44.139Z,9.37
2019-04-29T03:18:11.023Z,9.42
2019-04-29T03:20:57.377Z,9.42
2019-04-29T03:23:24.550Z,9.39
2019-04-29T03:25:51.266Z,9.31
2019-04-29T03:28:18.093Z,9.26
2019-04-29T03:30:44.970Z,9.36
2019-04-29T03:33:12.084Z,9.26
2019-04-29T03:35:38.880Z,9.22
2019-04-29T03:38:05.720Z,9.31
2019-04-29T03:40:32.498Z,9.31
2019-04-29T03:42:59.240Z,9.30
2019-04-29T03:45:25.970Z,9.25
2019-04-29T03:47:52.936Z,9.32
2019-04-29T03:50:19.663Z,9.32
2019-04-29T03:52:46.403Z,9.33
2019-04-29T03:55:13.174Z,9.39
2019-04-29T03:57:39.891Z,9.45
2019-04-29T04:00:47.729Z,9.45
2019-04-29T04:03:34.096Z,9.43
2019-04-29T04:06:20.584Z,9.54
2019-04-29T04:09:07.025Z,9.43
2019-04-29T04:11:33.895Z,9.56
2019-04-29T04:14:00.642Z,9.46
2019-04-29T04:16:47.026Z,9.55
2019-04-29T04:19:13.953Z,9.48
2019-04-29T04:21:40.679Z,9.52
2019-04-29T04:24:07.937Z,9.56
2019-04-29T04:26:34.786Z,9.56
2019-04-29T04:29:01.615Z,9.55
2019-04-29T04:31:28.680Z,9.62
2019-04-29T04:33:55.438Z,9.52
2019-04-29T04:36:22.236Z,9.59
2019-04-29T04:38:49.244Z,9.61
2019-04-29T04:41:16.083Z,9.70
2019-04-29T04:43:43.436Z,9.67
2019-04-29T04:46:10.185Z,9.63
2019-04-29T04:48:36.803Z,9.67
2019-04-29T04:51:03.700Z,9.71
2019-04-29T04:53:30.425Z,9.76
2019-04-29T04:58:32.342Z,9.73
2019-04-29T05:00:59.066Z,9.70
2019-04-29T05:03:25.839Z,9.66
2019-04-29T05:05:52.717Z,9.61
2019-04-29T05:08:19.472Z,9.59
2019-04-29T05:10:46.425Z,9.63
2019-04-29T05:13:26.963Z,9.57
2019-04-29T05:15:42.399Z,9.63
2019-04-29T05:18:09.803Z,9.60
2019-04-29T05:20:36.909Z,9.60
2019-04-29T05:23:04.299Z,9.62
2019-04-29T05:26:12.942Z,9.60
2019-04-29T05:28:40.096Z,9.60
2019-04-29T05:31:07.411Z,9.68
2019-04-29T05:33:34.955Z,9.72
2019-04-29T05:36:21.799Z,9.75
2019-04-29T05:39:08.283Z,9.77
2019-04-29T05:41:36.400Z,9.79
2019-04-29T05:46:50.814Z,9.81
2019-04-29T05:52:30.185Z,9.93
2019-04-29T05:54:57.963Z,9.98
2019-04-29T05:57:44.391Z,9.85
2019-04-29T06:02:59.651Z,9.87
2019-04-29T06:05:26.733Z,9.87
2019-04-29T06:07:56.180Z,9.82
2019-04-29T06:10:24.349Z,9.87
2019-04-29T06:13:03.778Z,9.79
2019-04-29T06:15:30.734Z,9.76
2019-04-29T06:17:57.589Z,9.82
2019-04-29T06:20:24.338Z,9.83
2019-04-29T06:22:51.108Z,9.83
2019-04-29T06:25:37.709Z,9.81
2019-04-29T06:28:06.056Z,9.81
2019-04-29T06:30:33.127Z,9.72
2019-04-29T06:33:00.395Z,9.72
2019-04-29T06:35:27.708Z,9.74
2019-04-29T06:37:54.880Z,9.85
2019-04-29T06:40:21.950Z,9.82
2019-04-29T06:42:49.339Z,9.72
2019-04-29T06:45:17.878Z,9.77
2019-04-29T06:47:44.746Z,9.77
2019-04-29T06:50:11.820Z,9.82
2019-04-29T06:52:38.839Z,9.75
2019-04-29T06:55:05.742Z,9.73
2019-04-29T06:57:32.528Z,9.86
2019-04-29T07:00:01.019Z,9.86
2019-04-29T07:02:28.198Z,9.93
2019-04-29T07:04:55.987Z,9.97
2019-04-29T07:07:23.101Z,10.04
2019-04-29T07:09:49.956Z,10.02
2019-04-29T07:12:36.572Z,10.07
2019-04-29T07:15:07.652Z,10.07
2019-04-29T07:17:36.480Z,10.01
2019-04-29T07:20:03.312Z,10.00
2019-04-29T07:22:31.350Z,10.04
2019-04-29T07:24:58.453Z,10.00
2019-04-29T07:27:25.557Z,9.94
2019-04-29T07:29:53.004Z,9.97
2019-04-29T07:32:20.106Z,10.01
2019-04-29T07:34:47.198Z,10.00
2019-04-29T07:37:16.671Z,9.90
2019-04-29T07:39:43.852Z,9.94
2019-04-29T07:42:33.266Z,9.95
2019-04-29T07:45:23.706Z,9.82
2019-04-29T07:48:08.355Z,9.99
2019-04-29T07:50:35.448Z,10.04
2019-04-29T07:53:34.659Z,10.01
2019-04-29T07:56:10.604Z,9.95
2019-04-29T07:58:38.107Z,9.97
2019-04-29T08:01:05.501Z,10.05
2019-04-29T08:03:32.928Z,10.08
2019-04-29T08:06:21.585Z,10.12
2019-04-29T08:08:55.163Z,10.09
2019-04-29T08:11:18.190Z,10.05
2019-04-29T08:14:26.415Z,10.08
2019-04-29T08:16:53.326Z,10.16
2019-04-29T08:19:20.462Z,10.09
2019-04-29T08:21:49.807Z,10.12
2019-04-29T08:24:17.039Z,10.08
2019-04-29T08:26:47.615Z,10.17
2019-04-29T08:29:15.427Z,10.09
2019-04-29T08:31:42.513Z,10.16
2019-04-29T08:34:09.702Z,10.21
2019-04-29T08:36:37.143Z,10.29
2019-04-29T08:39:08.653Z,10.29
2019-04-29T08:41:34.542Z,10.33
2019-04-29T08:44:21.306Z,10.37
2019-04-29T08:47:07.962Z,10.45
2019-04-29T08:49:35.302Z,10.46
2019-04-29T08:52:02.854Z,10.47
2019-04-29T08:54:32.038Z,10.56
2019-04-29T08:57:04.179Z,10.64
2019-04-29T08:59:28.457Z,10.61
2019-04-29T09:01:55.942Z,10.76
2019-04-29T09:04:23.608Z,10.94
2019-04-29T09:06:50.741Z,10.94
2019-04-29T09:09:28.800Z,10.97
2019-04-29T09:11:48.028Z,11.11
2019-04-29T09:14:16.583Z,11.15
2019-04-29T09:16:44.109Z,11.42
2019-04-29T09:19:11.288Z,11.42
2019-04-29T09:24:28.970Z,11.29
2019-04-29T09:27:16.026Z,11.22
2019-04-29T09:29:46.316Z,11.11
2019-04-29T09:32:12.525Z,11.07
2019-04-29T09:34:40.107Z,11.21
2019-04-29T09:37:07.274Z,11.13
2019-04-29T09:42:45.495Z,11.28
2019-04-29T09:45:30.822Z,11.10
2019-04-29T09:47:57.585Z,11.12
2019-04-29T09:50:24.212Z,11.25
2019-04-29T09:52:50.971Z,11.21
2019-04-29T09:55:39.984Z,11.49
2019-04-29T09:58:06.439Z,11.29
2019-04-29T10:00:53.057Z,11.36
2019-04-29T10:03:39.742Z,11.49
2019-04-29T10:08:59.264Z,11.88
2019-04-29T10:11:26.027Z,12.16
2019-04-29T10:13:52.818Z,12.13
2019-04-29T10:16:39.334Z,12.16
2019-04-29T10:19:25.882Z,12.17
2019-04-29T10:21:52.647Z,12.22
2019-04-29T10:24:19.499Z,12.07
2019-04-29T10:26:46.487Z,12.09
2019-04-29T10:29:33.007Z,12.13
2019-04-29T10:34:34.531Z,12.00
2019-04-29T10:37:01.668Z,11.99
2019-04-29T10:39:48.012Z,11.88
2019-04-29T10:45:14.469Z,11.90
2019-04-29T10:51:02.305Z,11.91
2019-04-29T10:53:29.098Z,12.09
2019-04-29T10:55:55.920Z,12.05
2019-04-29T10:58:30.264Z,12.13
2019-04-29T11:02:01.076Z,12.26
2019-04-29T11:06:54.958Z,12.33
2019-04-29T11:09:42.165Z,12.50
2019-04-29T11:15:01.783Z,12.83
2019-04-29T11:17:29.475Z,12.90
2019-04-29T11:19:56.666Z,13.07
2019-04-29T11:28:00.949Z,13.43
2019-04-29T11:33:23.104Z,13.52
2019-04-29T11:38:43.935Z,13.37
2019-04-29T11:41:11.739Z,13.49
2019-04-29T11:43:40.450Z,13.33
2019-04-29T11:46:09.927Z,13.33
2019-04-29T11:48:36.672Z,13.24
2019-04-29T11:51:23.135Z,13.27
2019-04-29T11:53:50.549Z,13.12
2019-04-29T11:56:17.187Z,13.09
2019-04-29T12:01:50.844Z,12.77
2019-04-29T12:04:33.416Z,12.88
2019-04-29T12:07:00.070Z,13.01
2019-04-29T12:09:30.461Z,12.99
2019-04-29T12:11:55.616Z,13.22
2019-04-29T12:14:42.106Z,13.44
2019-04-29T12:17:28.684Z,13.51
2019-04-29T12:22:31.625Z,13.90
2019-04-29T12:24:58.828Z,13.87
2019-04-29T12:27:25.451Z,14.30
2019-04-29T12:29:54.249Z,14.50
2019-04-29T12:32:43.348Z,14.67
2019-04-29T12:35:30.237Z,14.43
2019-04-29T12:38:17.414Z,14.56
2019-04-29T12:41:03.827Z,14.60
2019-04-29T12:43:54.059Z,14.58
2019-04-29T12:46:38.481Z,14.80
2019-04-29T12:49:08.511Z,14.57
2019-04-29T12:51:34.053Z,14.69
2019-04-29T12:54:00.837Z,14.79
2019-04-29T12:56:49.289Z,15.03
2019-04-29T12:59:16.211Z,14.98
2019-04-29T13:02:02.747Z,15.39
2019-04-29T13:04:49.776Z,15.90
2019-04-29T13:10:29.995Z,16.36
2019-04-29T13:12:58.243Z,16.22
2019-04-29T13:15:48.418Z,16.25
2019-04-29T13:21:10.438Z,16.07
2019-04-29T13:23:53.725Z,16.49
2019-04-29T13:26:08.006Z,16.83
2019-04-29T13:28:38.406Z,16.96
2019-04-29T13:31:03.033Z,17.41
2019-04-29T13:33:29.849Z,17.48
2019-04-29T13:35:56.870Z,17.19
2019-04-29T13:38:23.546Z,16.98
2019-04-29T13:40:50.384Z,17.01
2019-04-29T13:43:20.709Z,17.13
2019-04-29T13:48:55.260Z,17.07
2019-04-29T13:51:34.003Z,16.71
2019-04-29T13:53:45.169Z,16.84
2019-04-29T13:56:31.946Z,16.83
2019-04-29T13:58:40.961Z,17.00
2019-04-29T14:01:23.696Z,16.92
2019-04-29T14:03:49.547Z,16.95
2019-04-29T14:06:18.774Z,16.99
2019-04-29T14:08:46.716Z,16.98
2019-04-29T14:11:13.855Z,16.53
2019-04-29T14:13:43.184Z,16.71
2019-04-29T14:16:11.987Z,16.85
2019-04-29T14:18:43.660Z,17.18
2019-04-29T14:21:11.933Z,17.49
2019-04-29T14:23:38.695Z,17.58
2019-04-29T14:26:05.829Z,17.65
2019-04-29T14:28:33.320Z,18.05
2019-04-29T14:31:00.483Z,18.25
2019-04-29T14:36:24.290Z,18.16
2019-04-29T14:38:48.625Z,18.09
2019-04-29T14:41:19.298Z,18.36
2019-04-29T14:46:59.252Z,18.42
2019-04-29T14:49:29.291Z,18.61
2019-04-29T14:51:56.130Z,18.96
2019-04-29T14:54:22.974Z,19.30
2019-04-29T14:56:50.083Z,19.69
2019-04-29T14:59:16.944Z,19.91
2019-04-29T15:04:37.973Z,19.94
2019-04-29T15:07:04.961Z,19.52
2019-04-29T15:09:45.990Z,19.19
2019-04-29T15:12:21.770Z,19.30
2019-04-29T15:15:08.608Z,19.22
2019-04-29T15:17:55.702Z,19.14
2019-04-29T15:23:02.821Z,18.56
2019-04-29T15:25:30.115Z,18.37
2019-04-29T15:27:57.301Z,18.16
2019-04-29T15:30:24.332Z,18.23
2019-04-29T15:32:53.150Z,18.27
2019-04-29T15:35:24.185Z,18.72
2019-04-29T15:37:49.591Z,18.73
2019-04-29T15:40:20.703Z,18.87
2019-04-29T15:42:49.151Z,19.22
2019-04-29T15:45:13.899Z,19.19
2019-04-29T15:47:41.673Z,19.18
2019-04-29T15:50:18.881Z,18.80
2019-04-29T15:52:38.050Z,19.05
2019-04-29T15:55:04.882Z,19.22
2019-04-29T15:57:52.396Z,18.99
2019-04-29T16:02:49.196Z,18.97
2019-04-29T16:05:35.811Z,19.11
2019-04-29T16:08:22.251Z,19.28
2019-04-29T16:11:08.635Z,19.57
2019-04-29T16:13:35.370Z,19.41
2019-04-29T16:16:02.128Z,19.46
2019-04-29T16:18:28.855Z,19.55
2019-04-29T16:20:56.150Z,19.48
2019-04-29T16:23:22.867Z,19.69
2019-04-29T16:25:52.393Z,19.19
2019-04-29T16:28:24.405Z,19.29
2019-04-29T16:30:47.753Z,19.38
2019-04-29T16:33:27.216Z,19.18
2019-04-29T16:35:57.590Z,19.26
2019-04-29T16:38:23.057Z,19.32
2019-04-29T16:43:37.913Z,19.34
2019-04-29T16:48:42.979Z,18.95
2019-04-29T16:51:14.171Z,18.87
2019-04-29T16:53:39.343Z,18.67
2019-04-29T16:56:06.698Z,18.40
2019-04-29T16:58:33.848Z,18.21
2019-04-29T17:01:01.319Z,18.22
2019-04-29T17:03:28.421Z,18.19
2019-04-29T17:05:55.567Z,17.95
2019-04-29T17:13:55.490Z,17.66
2019-04-29T17:18:57.067Z,17.42
2019-04-29T17:21:23.885Z,17.29
2019-04-29T17:23:50.616Z,17.07
2019-04-29T17:29:39.070Z,16.82
2019-04-29T17:32:14.543Z,16.69
2019-04-29T17:35:15.455Z,19.11
2019-04-29T17:37:15.748Z,16.22
2019-04-29T17:39:42.498Z,16.10
2019-04-29T17:42:09.567Z,15.91
2019-04-29T17:44:56.130Z,15.87
2019-04-29T17:47:47.413Z,15.76
2019-04-29T17:50:32.035Z,15.51
2019-04-29T17:52:59.221Z,15.47
2019-04-29T17:55:45.929Z,15.32
2019-04-29T18:01:15.524Z,14.98
2019-04-29T18:04:02.607Z,14.93
2019-04-29T18:06:49.330Z,14.77
2019-04-29T18:09:44.984Z,14.69
2019-04-29T18:14:57.099Z,14.49
2019-04-29T18:20:30.796Z,14.21
2019-04-29T18:28:19.123Z,13.90
2019-04-29T18:30:49.716Z,13.82
2019-04-29T18:33:18.931Z,13.66
2019-04-29T18:35:46.351Z,13.60
2019-04-29T18:38:13.885Z,13.57
2019-04-29T18:40:42.286Z,13.51
2019-04-29T18:43:09.794Z,13.38
2019-04-29T18:45:36.893Z,13.15
2019-04-29T18:48:09.131Z,13.07
2019-04-29T18:50:38.705Z,13.00
2019-04-29T18:53:03.119Z,12.90
2019-04-29T18:55:29.965Z,12.78
2019-04-29T18:57:58.412Z,12.78
2019-04-29T19:00:25.519Z,12.58
2019-04-29T19:02:57.355Z,12.54
2019-04-29T19:05:40.792Z,12.52
2019-04-29T19:08:14.408Z,12.24
2019-04-29T19:10:37.511Z,12.05
2019-04-29T19:13:12.740Z,12.01
2019-04-29T19:15:39.985Z,11.92
2019-04-29T19:18:07.764Z,11.86
2019-04-29T19:20:35.904Z,11.82
2019-04-29T19:23:07.879Z,11.73
2019-04-29T19:25:32.172Z,11.62
2019-04-29T19:28:11.525Z,11.56
2019-04-29T19:30:29.304Z,11.53
2019-04-29T19:33:00.491Z,11.44
2019-04-29T19:35:29.583Z,11.37
2019-04-29T19:37:54.918Z,11.34
2019-04-29T19:40:21.820Z,11.21
2019-04-29T19:42:48.932Z,11.21
2019-04-29T19:45:17.426Z,11.11
2019-04-29T19:47:47.487Z,11.05
2019-04-29T19:50:16.652Z,10.95
2019-04-29T19:52:41.968Z,10.90
2019-04-29T19:55:08.836Z,10.85
2019-04-29T19:57:38.075Z,10.80
2019-04-29T20:00:47.327Z,10.83
2019-04-29T20:03:21.160Z,10.68
2019-04-29T20:06:09.156Z,10.59
2019-04-29T20:08:51.101Z,10.59
2019-04-29T20:11:11.395Z,10.53
2019-04-29T20:13:32.189Z,10.47
2019-04-29T20:16:24.980Z,10.41
2019-04-29T20:19:12.069Z,10.32
2019-04-29T20:21:36.441Z,10.32
2019-04-29T20:24:04.765Z,10.13
2019-04-29T20:26:31.623Z,10.21
2019-04-29T20:28:58.774Z,10.09
2019-04-29T20:31:26.169Z,10.12
2019-04-29T20:33:56.063Z,10.06
2019-04-29T20:36:33.219Z,9.95
2019-04-29T20:38:51.824Z,9.90
2019-04-29T20:41:36.860Z,9.95
2019-04-29T20:43:47.445Z,9.84
2019-04-29T20:46:15.988Z,9.80
2019-04-29T20:48:45.444Z,9.69
2019-04-29T20:51:14.145Z,9.67
2019-04-29T20:53:46.538Z,9.61
2019-04-29T20:56:23.621Z,9.61
2019-04-29T20:58:44.206Z,9.55
2019-04-29T21:03:53.531Z,9.67
2019-04-29T21:06:18.509Z,9.52
2019-04-29T21:08:50.985Z,9.51
2019-04-29T21:14:17.351Z,9.31
2019-04-29T21:16:46.118Z,9.31
2019-04-29T21:19:12.984Z,9.31
2019-04-29T21:21:41.912Z,9.30
2019-04-29T21:24:13.914Z,9.24
2019-04-29T21:26:44.301Z,9.16
2019-04-29T21:29:06.291Z,9.06
2019-04-29T21:31:33.146Z,9.05
2019-04-29T21:33:59.870Z,8.97
2019-04-29T21:36:46.371Z,9.00
2019-04-29T21:39:36.392Z,9.15
2019-04-29T21:44:58.631Z,8.97
2019-04-29T21:47:28.272Z,8.82
2019-04-29T21:49:56.268Z,8.82
2019-04-29T21:52:23.983Z,8.75
2019-04-29T21:54:51.323Z,8.75
2019-04-29T21:57:23.694Z,8.71
2019-04-29T21:59:48.630Z,8.74
2019-04-29T22:02:58.990Z,8.58
2019-04-29T22:05:25.680Z,8.65
2019-04-29T22:07:56.650Z,8.62
2019-04-29T22:13:01.743Z,8.46
2019-04-29T22:15:32.766Z,8.42
2019-04-29T22:17:58.628Z,8.38
2019-04-29T22:20:25.886Z,8.39
2019-04-29T22:22:53.031Z,8.28
2019-04-29T22:25:20.090Z,8.34
2019-04-29T22:27:46.894Z,8.26
2019-04-29T22:32:51.848Z,8.24
2019-04-29T22:35:18.559Z,8.22
2019-04-29T22:37:45.582Z,8.13
2019-04-29T22:40:12.957Z,8.13
2019-04-29T22:45:17.941Z,8.05
2019-04-29T22:47:45.156Z,8.04
2019-04-29T22:50:12.262Z,8.00
2019-04-29T22:52:39.027Z,7.90
2019-04-29T22:55:06.047Z,7.88
2019-04-29T22:57:33.109Z,7.79
2019-04-29T23:02:57.715Z,7.82
2019-04-29T23:05:27.781Z,7.81
2019-04-29T23:07:52.879Z,7.76
2019-04-29T23:10:26.793Z,7.69
2019-04-29T23:12:54.042Z,7.73
2019-04-29T23:15:22.695Z,7.70
2019-04-29T23:17:50.751Z,7.61
2019-04-29T23:20:35.740Z,7.65
2019-04-29T23:26:05.492Z,7.65
2019-04-29T23:28:32.667Z,7.61
2019-04-29T23:30:59.408Z,7.59
2019-04-29T23:33:26.519Z,7.61
2019-04-29T23:35:56.095Z,7.48
2019-04-29T23:38:25.409Z,7.48
2019-04-29T23:40:54.636Z,7.52
2019-04-29T23:43:27.088Z,7.45
2019-04-29T23:45:51.813Z,7.37
2019-04-29T23:48:20.032Z,7.36
2019-04-29T23:50:49.710Z,7.37
2019-04-29T23:53:16.676Z,7.32
2019-04-29T23:55:45.658Z,7.34
2019-04-29T23:58:37.211Z,7.28
